Startpagina
METAR-TAF:

METAR-TAF

Vliegvelden :

Tripoli, Libië

Luchthaven Mitiga Internationaal

breedte: 32-54N, lengte: 13-17E, hoogte: 11 m

Actueel weer

Dit bericht is 11 minuten geleden gemaakt, om 23:55 UTC
Wind 7 kt uit het zuiden
Temperatuur 33°C
Vochtigheid 14%
Druk 1012 hPa
Zicht: 7000 m
Onbewolkt

METAR: HLLM 272355Z 19007KT 7000 SKC 33/02 Q1012

Tijdstip: 02:06 (00:06 UTC)

Verwachting

Dit bericht is 1 uur en het 6 minuten geleden gemaakt, om 23:00 UTC
Verwachting geldig van 28 om 00 UTC tot 28 om 24 UTC
Wind 2 kt uit variabele richting
Zicht: 8000 m
Wijzigt naar
van 28 om 10 UTC tot 28 om 12 UTC
Wind 8 kt uit het noorden
Zicht 10 km of meer
geen wolken onder 1500 m en geen cumulonimbus
Wijzigt naar
van 28 om 16 UTC tot 28 om 18 UTC
Wind 10 kt uit het oostzuidoosten

TAF: HLLM 272300Z 2800/2824 VRB02KT 8000 NSC BECMG 2810/2812 36008KT CAVOK BECMG 2816/2818 12010KT

Waarnemingen en weersverwachtingen van meer dan 4000 vliegvelden (METAR en TAF).

De beschikbare stations zijn de gele en rode punten op de kaart.

Ga met uw muis naar het station om de naam te zien.

Klik dan om waarnemingen en weersverwachtingen te zien.

kaart wijzigen: klik op de groene knoppen met een zwart kruis om in te zoomen, op de groene knop met een streepje om uit te zoomen of op de groene pijlen voor aangrenzende kaarten.


METAR-TAF: